Time;durP1;ratioP1;P1;durP2;ratioP2;P2;SDS_P1;SDS_P2;PMS_P1;PMS_P2;Temp;Humidity;BMP_temperature;BMP_pressure;BME280_temperature;BME280_humidity;BME280_pressure;Samples;Min_cycle;Max_cycle;Signal;HPM_P1;HPM_P2
2023/08/05 00:00:54;;;;;;;10.52;3.75;;;;;;;20.75;74.30;100201.16;5036289;28;20135;-78
2023/08/05 00:03:24;;;;;;;8.63;3.65;;;;;;;20.90;73.45;100209.03;5034662;28;20413;-78
2023/08/05 00:05:51;;;;;;;9.47;4.13;;;;;;;20.90;73.60;100219.81;5043865;28;20056;-77
2023/08/05 00:08:18;;;;;;;5.97;3.63;;;;;;;20.73;73.91;100188.94;5045652;28;20098;-77
2023/08/05 00:10:45;;;;;;;9.55;3.72;;;;;;;20.36;74.40;100126.59;5040698;28;20052;-77
2023/08/05 00:13:12;;;;;;;11.77;3.63;;;;;;;20.78;74.52;100206.16;5043171;28;20086;-78
2023/08/05 00:15:39;;;;;;;9.48;3.95;;;;;;;20.63;74.60;100176.75;5037449;28;20084;-78
2023/08/05 00:18:09;;;;;;;5.70;3.35;;;;;;;20.67;75.22;100193.31;5040221;28;20059;-77
2023/08/05 00:20:36;;;;;;;8.35;3.70;;;;;;;20.77;75.80;100187.47;5063743;27;20050;-78
2023/08/05 00:23:03;;;;;;;8.18;3.72;;;;;;;20.91;74.15;100195.31;5073470;28;20048;-78
2023/08/05 00:25:30;;;;;;;6.05;3.35;;;;;;;20.87;73.13;100187.84;5061007;28;20097;-77
2023/08/05 00:27:56;;;;;;;13.52;3.60;;;;;;;20.69;72.92;100165.09;5062147;28;20139;-79
2023/08/05 00:30:24;;;;;;;11.63;3.80;;;;;;;20.70;73.25;100176.72;5066383;28;20593;-78
2023/08/05 00:32:51;;;;;;;9.75;3.40;;;;;;;20.38;73.67;100130.75;5063876;28;20054;-78
2023/08/05 00:35:22;;;;;;;9.27;3.78;;;;;;;20.54;74.01;100174.47;5058901;28;20055;-79
2023/08/05 00:37:52;;;;;;;;;;;;;;;20.14;75.18;100131.44;5080414;28;20043;-78
2023/08/05 00:40:30;;;;;;;7.43;3.40;;;;;;;20.42;74.71;100174.28;5045461;28;19920;-79
2023/08/05 00:43:10;;;;;;;10.02;3.58;;;;;;;19.74;74.49;100075.75;5030703;28;20118;-79
2023/08/05 00:45:43;;;;;;;6.07;3.10;;;;;;;20.20;73.59;100136.00;5028053;28;20311;-80
2023/08/05 00:48:22;;;;;;;12.05;3.40;;;;;;;20.33;74.09;100156.69;5025158;28;20456;-79
2023/08/05 00:50:52;;;;;;;5.55;3.15;;;;;;;20.41;73.82;100169.91;5059595;28;20449;-80
2023/08/05 00:53:23;;;;;;;6.82;3.15;;;;;;;20.27;74.15;100163.75;5057780;28;20048;-78
2023/08/05 00:55:51;;;;;;;4.38;3.22;;;;;;;20.07;74.77;100144.91;5063534;28;20046;-78
2023/08/05 00:58:22;;;;;;;6.22;3.13;;;;;;;20.28;74.55;100163.53;5043260;28;20358;-80
2023/08/05 01:00:49;;;;;;;4.95;3.17;;;;;;;19.87;74.50;100101.00;5075348;28;20597;-79
2023/08/05 01:03:16;;;;;;;7.68;3.08;;;;;;;20.31;74.53;100166.84;5062675;28;20435;-80
2023/08/05 01:05:50;;;;;;;4.07;2.83;;;;;;;20.32;74.03;100168.53;5060299;28;20069;-79
2023/08/05 01:08:19;;;;;;;;;;;;;;;20.41;74.52;100169.91;5053404;28;20135;-80
2023/08/05 01:10:54;;;;;;;4.43;2.42;;;;;;;20.36;74.07;100169.72;5047408;28;19920;-81
2023/08/05 01:13:31;;;;;;;5.15;2.63;;;;;;;20.39;74.18;100170.16;5048372;28;20319;-78
2023/08/05 01:15:58;;;;;;;6.72;2.70;;;;;;;20.27;73.17;100151.09;5058018;28;20285;-79
2023/08/05 01:18:28;;;;;;;4.65;2.55;;;;;;;20.32;73.20;100161.25;5051403;28;20084;-80
2023/08/05 01:21:05;;;;;;;5.10;3.35;;;;;;;20.24;73.41;100153.38;5021238;28;20058;-80
2023/08/05 01:24:20;;;;;;;4.45;2.55;;;;;;;20.18;74.27;100157.75;5019710;28;20502;-82
2023/08/05 01:27:03;;;;;;;6.53;2.85;;;;;;;20.11;73.65;100140.75;5019986;28;20058;-79
2023/08/05 01:29:31;;;;;;;5.07;2.78;;;;;;;20.14;72.92;100151.09;5052901;28;20051;-79
2023/08/05 01:32:02;;;;;;;7.18;3.10;;;;;;;20.04;73.90;100134.56;5053143;28;20051;-80
2023/08/05 01:34:32;;;;;;;3.30;2.28;;;;;;;19.96;74.61;100115.94;5032747;28;20058;-78
2023/08/05 01:36:58;;;;;;;4.78;2.70;;;;;;;20.03;74.17;100149.06;5056038;28;20058;-77
2023/08/05 01:39:26;;;;;;;4.90;2.67;;;;;;;19.84;74.89;100119.25;5034732;28;20525;-78
2023/08/05 01:41:53;;;;;;;2.33;2.10;;;;;;;19.93;72.65;100101.00;5040527;28;20143;-78
2023/08/05 01:44:20;;;;;;;3.70;2.05;;;;;;;19.87;73.31;100115.31;5031533;28;20079;-77
2023/08/05 01:46:46;;;;;;;5.13;2.25;;;;;;;20.17;73.96;100142.63;5096593;27;20047;-78
2023/08/05 01:49:19;;;;;;;4.88;2.47;;;;;;;19.96;74.17;100092.50;5073792;27;20055;-78
2023/08/05 01:51:47;;;;;;;3.65;2.22;;;;;;;20.07;73.70;100112.56;5091182;27;20248;-79
2023/08/05 01:54:15;;;;;;;3.70;2.30;;;;;;;20.07;73.57;100107.19;5079867;27;20043;-77
2023/08/05 01:56:46;;;;;;;5.20;2.53;;;;;;;20.17;73.94;100139.94;5063338;28;20323;-79
2023/08/05 01:59:22;;;;;;;4.00;2.40;;;;;;;19.88;73.55;100097.28;4983436;28;20152;-77
2023/08/05 02:01:51;;;;;;;3.78;2.05;;;;;;;20.09;73.37;100142.84;5045890;28;20401;-78
2023/08/05 02:04:18;;;;;;;6.63;2.20;;;;;;;19.79;73.82;100115.53;5038370;28;20059;-77
2023/08/05 02:06:45;;;;;;;5.82;2.10;;;;;;;19.96;73.59;100140.16;5040414;28;20054;-78
2023/08/05 02:09:11;;;;;;;2.88;2.08;;;;;;;19.91;75.34;100148.88;5035935;28;20050;-79
2023/08/05 02:11:38;;;;;;;5.70;2.05;;;;;;;19.71;74.94;100113.03;5045081;28;20454;-78
2023/08/05 02:14:05;;;;;;;3.83;2.25;;;;;;;19.84;75.56;100142.66;5055216;28;20401;-77
2023/08/05 02:16:35;;;;;;;3.60;2.05;;;;;;;19.77;75.45;100136.44;5065052;28;20044;-79
2023/08/05 02:19:01;;;;;;;5.18;2.10;;;;;;;19.68;76.07;100135.81;5087853;28;20231;-81
2023/08/05 02:21:28;;;;;;;4.95;2.20;;;;;;;19.60;77.42;100144.91;5085409;28;20062;-81
2023/08/05 02:23:55;;;;;;;3.50;1.70;;;;;;;19.53;78.28;100137.88;5063215;28;20040;-79
2023/08/05 02:26:22;;;;;;;3.08;1.70;;;;;;;19.29;78.08;100088.97;5080520;28;20055;-79
2023/08/05 02:28:56;;;;;;;3.45;1.50;;;;;;;19.47;78.64;100130.59;5059275;28;20043;-80
2023/08/05 02:31:24;;;;;;;4.80;1.55;;;;;;;19.41;78.04;100116.94;5078869;28;20427;-81
2023/08/05 02:33:50;;;;;;;1.55;1.25;;;;;;;19.57;78.91;100133.75;5059640;28;20051;-79
2023/08/05 02:36:17;;;;;;;2.83;1.50;;;;;;;19.52;79.50;100112.00;5065264;28;20055;-80
2023/08/05 02:38:48;;;;;;;2.28;1.52;;;;;;;19.64;79.29;100119.22;5081199;28;20059;-80
2023/08/05 02:41:15;;;;;;;2.25;1.27;;;;;;;19.78;78.34;100113.84;5068327;28;20256;-79
2023/08/05 02:43:45;;;;;;;7.55;1.77;;;;;;;19.70;78.36;100101.44;5083310;28;20528;-80
2023/08/05 02:46:15;;;;;;;3.20;1.30;;;;;;;19.67;79.03;100090.25;5071883;28;20484;-80
2023/08/05 02:48:43;;;;;;;10.20;1.65;;;;;;;19.76;78.97;100100.63;5089021;28;20105;-80
2023/08/05 02:51:19;;;;;;;4.65;1.58;;;;;;;19.82;79.36;100089.00;5073916;28;20052;-79
2023/08/05 02:53:50;;;;;;;3.65;1.40;;;;;;;19.82;79.22;100078.22;5047886;28;20043;-79
2023/08/05 02:56:18;;;;;;;2.97;1.98;;;;;;;19.90;78.60;100089.81;5066944;28;20048;-79
2023/08/05 02:58:44;;;;;;;4.63;2.30;;;;;;;19.73;78.76;100090.25;5062357;28;20402;-79
2023/08/05 03:01:13;;;;;;;3.42;2.47;;;;;;;19.81;79.53;100111.59;5059917;28;20053;-79
2023/08/05 03:03:39;;;;;;;5.68;2.80;;;;;;;19.56;79.67;100079.03;5063472;28;20063;-78
2023/08/05 03:06:06;;;;;;;4.68;2.85;;;;;;;19.42;80.02;100064.78;5065245;28;20044;-79
2023/08/05 03:08:34;;;;;;;8.73;2.97;;;;;;;19.62;79.30;100077.41;5062562;28;20432;-79
2023/08/05 03:11:02;;;;;;;5.15;2.38;;;;;;;19.74;79.33;100105.38;5084989;28;20063;-80
2023/08/05 03:13:32;;;;;;;6.22;3.28;;;;;;;19.67;79.51;100085.69;5051707;28;20075;-81
2023/08/05 03:16:07;;;;;;;5.65;3.33;;;;;;;19.75;79.32;100098.13;5064672;28;20051;-80
2023/08/05 03:18:34;;;;;;;6.35;3.33;;;;;;;19.44;79.75;100075.31;5057133;28;20503;-77
2023/08/05 03:21:04;;;;;;;9.00;3.30;;;;;;;19.39;80.91;100084.03;5066837;28;20048;-78
2023/08/05 03:23:30;;;;;;;7.30;4.78;;;;;;;19.55;81.79;100103.50;5048256;28;20044;-79
2023/08/05 03:26:00;;;;;;;8.20;4.82;;;;;;;19.03;80.09;100002.88;5067793;28;20431;-77
2023/08/05 03:28:27;;;;;;;8.50;4.65;;;;;;;19.60;80.84;100111.78;5086262;28;20059;-78
2023/08/05 03:30:57;;;;;;;7.72;5.10;;;;;;;19.57;81.10;100109.50;5055501;28;20138;-81
2023/08/05 03:33:24;;;;;;;9.90;5.10;;;;;;;19.61;81.98;100113.41;5060645;28;20449;-78
2023/08/05 03:35:50;;;;;;;9.35;5.22;;;;;;;19.42;81.77;100083.63;5063625;28;20104;-79
2023/08/05 03:38:19;;;;;;;10.38;5.75;;;;;;;19.56;81.73;100099.75;5063166;28;20082;-79
2023/08/05 03:40:45;;;;;;;12.40;5.80;;;;;;;19.80;81.49;100134.16;5050077;28;20047;-80
2023/08/05 03:43:16;;;;;;;9.90;6.03;;;;;;;19.77;81.20;100113.03;5058994;28;20118;-80
2023/08/05 03:45:51;;;;;;;8.02;5.53;;;;;;;19.75;81.30;100119.66;5083720;28;20505;-78
2023/08/05 03:48:18;;;;;;;13.15;7.03;;;;;;;19.80;81.69;100118.00;5072658;28;20048;-78
2023/08/05 03:50:45;;;;;;;14.23;7.25;;;;;;;19.84;81.37;100129.19;5061232;28;20901;-80
2023/08/05 03:53:11;;;;;;;10.82;6.75;;;;;;;19.82;81.24;100118.63;5057275;28;20043;-81
2023/08/05 03:55:38;;;;;;;7.72;5.85;;;;;;;19.79;81.92;100099.38;5067052;28;20424;-79
2023/08/05 03:58:07;;;;;;;8.55;5.72;;;;;;;19.90;80.86;100105.97;5064534;28;20055;-79
2023/08/05 04:00:36;;;;;;;8.10;5.07;;;;;;;19.81;78.47;100087.34;5066697;28;20128;-79
2023/08/05 04:03:07;;;;;;;9.20;4.50;;;;;;;19.84;79.26;100113.03;5059903;28;20039;-79
2023/08/05 04:05:33;;;;;;;11.73;5.40;;;;;;;19.52;79.93;100077.00;5058166;28;20077;-81
2023/08/05 04:08:00;;;;;;;7.78;5.22;;;;;;;19.67;80.56;100106.41;5059101;28;20054;-78
2023/08/05 04:10:27;;;;;;;8.90;5.30;;;;;;;19.70;79.65;100109.50;5065308;28;20275;-77
2023/08/05 04:12:54;;;;;;;6.85;4.93;;;;;;;19.53;80.68;100078.63;5063494;28;20079;-77
2023/08/05 04:15:23;;;;;;;8.88;4.63;;;;;;;19.84;79.71;100102.25;5068182;27;20051;-79
2023/08/05 04:17:59;;;;;;;5.43;4.03;;;;;;;19.77;79.89;100087.97;5048450;27;20449;-79
2023/08/05 04:20:36;;;;;;;10.82;5.18;;;;;;;19.82;79.26;100078.22;5037847;28;20126;-78
2023/08/05 04:23:05;;;;;;;7.68;4.18;;;;;;;19.69;78.70;100054.03;5051845;28;20446;-78
2023/08/05 04:25:32;;;;;;;7.97;4.18;;;;;;;19.59;77.57;100045.50;5060172;28;20050;-77
2023/08/05 04:27:59;;;;;;;6.30;4.25;;;;;;;19.85;77.31;100099.38;5084606;28;20515;-76
2023/08/05 04:30:35;;;;;;;7.45;3.70;;;;;;;19.83;77.56;100106.81;5048156;28;20051;-78
2023/08/05 04:33:08;;;;;;;6.32;3.25;;;;;;;19.79;78.37;100110.16;5035212;28;20477;-79
2023/08/05 04:35:35;;;;;;;7.82;3.42;;;;;;;19.59;77.19;100075.13;5058256;28;20113;-78
2023/08/05 04:38:05;;;;;;;5.82;3.63;;;;;;;19.62;77.30;100098.94;5062174;28;20051;-76
2023/08/05 04:40:32;;;;;;;4.20;3.05;;;;;;;19.71;77.14;100113.88;5063357;28;20272;-78
2023/08/05 04:43:02;;;;;;;14.15;3.95;;;;;;;19.74;77.35;100107.25;5076601;28;20067;-78
2023/08/05 04:45:29;;;;;;;5.75;3.20;;;;;;;19.57;75.61;100074.50;5076467;27;20050;-77
2023/08/05 04:47:55;;;;;;;6.25;3.05;;;;;;;19.64;76.88;100102.25;5072434;27;20092;-77
2023/08/05 04:50:22;;;;;;;3.95;3.05;;;;;;;19.66;77.55;100105.56;5056469;28;20051;-78
2023/08/05 04:52:49;;;;;;;6.38;3.45;;;;;;;19.56;76.19;100081.72;5059317;28;20046;-77
2023/08/05 04:55:16;;;;;;;6.45;2.78;;;;;;;19.63;77.10;100100.59;5063502;28;20823;-78
2023/08/05 04:57:43;;;;;;;4.93;3.35;;;;;;;19.75;76.88;100107.03;5062789;28;20447;-77
2023/08/05 05:00:10;;;;;;;4.03;2.72;;;;;;;19.76;74.37;100095.22;5078923;28;20069;-78
2023/08/05 05:02:41;;;;;;;3.95;2.72;;;;;;;19.82;75.31;100113.22;5063833;28;20386;-78
2023/08/05 05:05:08;;;;;;;8.50;3.13;;;;;;;19.90;74.63;100114.06;5078313;28;20113;-78
2023/08/05 05:07:34;;;;;;;3.97;3.05;;;;;;;19.83;75.37;100097.91;5047602;28;20170;-77
2023/08/05 05:10:01;;;;;;;3.65;2.67;;;;;;;19.73;74.52;100089.41;5040332;28;20342;-77
2023/08/05 05:12:28;;;;;;;3.97;2.47;;;;;;;19.83;74.63;100112.22;5078954;28;20069;-78
2023/08/05 05:14:54;;;;;;;4.55;2.75;;;;;;;19.63;75.23;100116.75;5074640;27;20550;-77
2023/08/05 05:17:23;;;;;;;4.55;2.70;;;;;;;19.30;76.47;100101.41;5071044;28;20432;-79
2023/08/05 05:19:50;;;;;;;3.65;2.60;;;;;;;19.18;77.01;100095.00;5064600;28;20170;-78
2023/08/05 05:22:17;;;;;;;3.50;2.35;;;;;;;18.85;78.53;100066.16;5060256;28;20150;-78
2023/08/05 05:24:45;;;;;;;4.85;2.40;;;;;;;19.05;77.78;100103.84;5056028;28;20044;-78
2023/08/05 05:27:14;;;;;;;5.22;2.53;;;;;;;19.06;78.97;100131.59;5082147;28;20409;-79
2023/08/05 05:29:41;;;;;;;3.53;2.50;;;;;;;18.78;80.07;100084.13;5080114;28;20311;-78
2023/08/05 05:32:08;;;;;;;4.68;2.85;;;;;;;18.85;79.89;100106.50;5062031;28;20131;-78
2023/08/05 05:34:39;;;;;;;11.32;2.78;;;;;;;18.94;80.92;100129.50;5061207;28;20043;-80
2023/08/05 05:37:09;;;;;;;3.50;2.35;;;;;;;18.87;79.99;100099.06;5063552;28;20047;-79
2023/08/05 05:39:36;;;;;;;4.53;2.50;;;;;;;18.47;80.68;100050.53;5063690;28;20062;-79
2023/08/05 05:42:03;;;;;;;5.22;2.53;;;;;;;18.89;80.46;100109.63;5065850;28;20043;-78
2023/08/05 05:44:30;;;;;;;5.80;2.85;;;;;;;18.64;80.92;100071.66;5069082;27;20126;-79
2023/08/05 05:46:56;;;;;;;3.65;2.33;;;;;;;18.99;80.47;100127.00;5074778;27;20050;-79
2023/08/05 05:49:23;;;;;;;4.68;2.70;;;;;;;18.77;80.96;100112.06;5073219;28;20043;-78
2023/08/05 05:51:50;;;;;;;3.40;2.53;;;;;;;18.78;81.34;100097.56;5061642;28;20051;-78
2023/08/05 05:54:17;;;;;;;3.65;2.42;;;;;;;19.07;81.60;100138.63;5081992;28;20363;-79
2023/08/05 05:56:43;;;;;;;4.50;2.63;;;;;;;18.78;81.08;100082.25;5054082;28;20459;-78
2023/08/05 05:59:10;;;;;;;7.07;3.42;;;;;;;19.11;80.68;100135.31;5068608;28;20409;-78
2023/08/05 06:01:37;;;;;;;7.22;2.08;;;;;;;19.09;81.69;100150.84;5071489;28;20112;-79
2023/08/05 06:04:07;;;;;;;6.93;3.13;;;;;;;19.05;80.46;100132.63;5082630;28;20048;-78
2023/08/05 06:06:35;;;;;;;3.77;3.13;;;;;;;18.93;80.94;100114.41;5062999;28;20075;-80
2023/08/05 06:09:07;;;;;;;6.05;3.42;;;;;;;18.79;81.54;100115.38;5049919;28;20634;-78
2023/08/05 06:11:35;;;;;;;5.90;2.75;;;;;;;18.76;82.07;100134.59;5040793;28;20437;-81
2023/08/05 06:14:04;;;;;;;5.90;2.80;;;;;;;18.65;82.64;100113.66;5049062;28;20131;-79
2023/08/05 06:16:32;;;;;;;5.28;3.55;;;;;;;17.98;83.57;100015.78;5078182;27;20089;-79
2023/08/05 06:19:01;;;;;;;4.55;3.05;;;;;;;18.75;84.11;100157.13;5069079;28;20340;-79
2023/08/05 06:21:28;;;;;;;4.72;3.10;;;;;;;18.62;83.95;100147.13;5059306;28;20043;-80
2023/08/05 06:23:57;;;;;;;5.20;3.42;;;;;;;17.20;85.06;99940.75;5063610;28;20202;-83
2023/08/05 06:26:26;;;;;;;3.67;2.50;;;;;;;18.67;86.65;100176.94;5039915;28;20051;-80
2023/08/05 06:28:52;;;;;;;5.57;3.17;;;;;;;18.71;85.47;100158.53;5003197;28;20857;-81
2023/08/05 06:31:20;;;;;;;4.95;3.22;;;;;;;18.52;85.70;100139.44;5055035;28;20149;-83
2023/08/05 06:33:47;;;;;;;4.60;3.60;;;;;;;18.54;86.03;100168.78;5079744;28;20096;-82
2023/08/05 06:36:14;;;;;;;6.65;3.95;;;;;;;18.45;86.90;100161.94;5078040;28;20043;-82
2023/08/05 06:38:40;;;;;;;7.20;3.85;;;;;;;18.58;87.15;100146.69;5066423;28;20051;-82
2023/08/05 06:41:07;;;;;;;7.03;2.72;;;;;;;18.23;86.33;100077.88;5064120;28;20425;-80
2023/08/05 06:43:34;;;;;;;2.47;2.00;;;;;;;18.79;86.33;100161.91;5061566;28;20507;-81
2023/08/05 06:46:04;;;;;;;6.20;4.03;;;;;;;18.53;85.62;100108.84;5075063;28;20039;-83
2023/08/05 06:48:33;;;;;;;5.78;3.35;;;;;;;18.95;85.50;100187.63;5069160;28;20512;-81
2023/08/05 06:51:00;;;;;;;5.43;2.97;;;;;;;19.01;84.50;100202.16;5042793;28;20044;-83
2023/08/05 06:53:27;;;;;;;4.45;3.10;;;;;;;19.03;85.12;100207.31;5044330;28;20044;-79
2023/08/05 06:56:01;;;;;;;5.30;3.15;;;;;;;18.91;86.00;100215.13;5039297;28;20406;-80
2023/08/05 06:58:28;;;;;;;5.10;2.67;;;;;;;18.74;86.34;100198.50;5058551;28;20048;-82
2023/08/05 07:00:55;;;;;;;5.35;2.83;;;;;;;18.68;87.32;100183.13;5052583;28;20046;-81
2023/08/05 07:03:23;;;;;;;6.47;2.55;;;;;;;18.35;87.50;100124.69;5043046;28;20338;-82
2023/08/05 07:05:53;;;;;;;7.80;3.50;;;;;;;19.02;86.48;100219.94;5075690;28;20077;-82
2023/08/05 07:08:22;;;;;;;5.47;3.50;;;;;;;19.10;86.07;100218.91;5047750;28;20540;-82
2023/08/05 07:10:57;;;;;;;6.53;3.35;;;;;;;18.88;86.65;100196.69;5049608;28;20044;-79
2023/08/05 07:13:25;;;;;;;5.70;3.17;;;;;;;19.25;87.04;100233.06;5042607;28;20322;-82
2023/08/05 07:15:59;;;;;;;3.88;3.35;;;;;;;19.23;86.23;100212.78;5089499;28;20078;-81
2023/08/05 07:18:30;;;;;;;5.45;3.75;;;;;;;18.89;85.57;100164.22;5072051;28;20122;-83
2023/08/05 07:20:57;;;;;;;7.78;4.47;;;;;;;19.35;85.41;100222.75;5063455;28;20417;-79
2023/08/05 07:23:24;;;;;;;8.55;3.30;;;;;;;19.25;84.91;100203.47;5060043;28;20218;-80
2023/08/05 07:25:51;;;;;;;5.72;3.03;;;;;;;19.53;84.86;100249.06;5057009;28;20477;-80
2023/08/05 07:28:18;;;;;;;6.85;4.38;;;;;;;19.50;83.36;100232.50;5063902;28;20489;-81
2023/08/05 07:30:47;;;;;;;5.93;3.00;;;;;;;19.60;83.58;100252.59;5067466;28;20052;-80
2023/08/05 07:33:14;;;;;;;6.55;3.53;;;;;;;19.28;82.97;100188.78;5051731;28;20053;-80
2023/08/05 07:35:41;;;;;;;5.65;3.78;;;;;;;19.72;82.41;100234.03;5042192;28;20429;-80
2023/08/05 07:38:11;;;;;;;5.10;3.20;;;;;;;19.78;82.27;100243.13;5044555;28;20044;-81
2023/08/05 07:40:40;;;;;;;3.85;3.15;;;;;;;19.94;81.85;100260.78;5062685;28;20135;-81
2023/08/05 07:43:15;;;;;;;3.97;3.08;;;;;;;19.69;81.92;100255.97;5056810;28;20048;-83
2023/08/05 07:45:45;;;;;;;3.97;2.60;;;;;;;19.60;82.91;100241.00;5079513;28;20400;-83
2023/08/05 07:48:13;;;;;;;3.42;2.05;;;;;;;19.50;82.39;100225.25;5089962;28;20685;-81
2023/08/05 07:50:40;;;;;;;30.20;27.33;;;;;;;19.75;81.86;100263.22;5053588;28;20260;-81
2023/08/05 07:53:09;;;;;;;4.10;2.38;;;;;;;19.54;81.65;100225.66;5032987;28;20498;-84
2023/08/05 07:55:37;;;;;;;5.30;2.50;;;;;;;18.84;81.96;100106.72;5052738;28;20044;-78
2023/08/05 07:58:06;;;;;;;3.90;2.78;;;;;;;19.60;81.98;100225.69;5054199;28;20102;-83
2023/08/05 08:00:34;;;;;;;4.22;2.67;;;;;;;19.95;81.57;100276.75;5069576;28;20526;-81
2023/08/05 08:03:03;;;;;;;5.95;3.08;;;;;;;19.12;81.14;100146.91;5072582;28;20055;-84
2023/08/05 08:05:32;;;;;;;3.60;2.80;;;;;;;19.64;81.15;100247.66;5066448;28;20060;-84
2023/08/05 08:08:00;;;;;;;3.60;2.75;;;;;;;19.80;81.75;100279.59;5060888;28;20199;-80
2023/08/05 08:10:26;;;;;;;4.75;3.15;;;;;;;19.61;82.21;100253.44;5069626;28;20301;-78
2023/08/05 08:12:53;;;;;;;4.88;3.15;;;;;;;19.54;82.53;100263.34;5063792;28;20044;-79
2023/08/05 08:15:21;;;;;;;6.40;3.55;;;;;;;19.55;83.53;100259.66;5070408;28;20062;-79
2023/08/05 08:17:47;;;;;;;5.95;3.15;;;;;;;19.72;82.81;100293.25;5082377;28;20121;-82
2023/08/05 08:20:14;;;;;;;3.72;3.40;;;;;;;19.61;82.78;100291.13;5059628;28;20055;-81
2023/08/05 08:22:41;;;;;;;8.25;3.53;;;;;;;19.51;83.68;100282.59;5064219;28;20137;-80
2023/08/05 08:25:13;;;;;;;7.40;3.35;;;;;;;19.47;83.60;100279.50;5063802;28;20097;-80
2023/08/05 08:27:40;;;;;;;6.10;3.13;;;;;;;19.52;83.01;100266.25;5070110;28;20722;-80
2023/08/05 08:30:07;;;;;;;3.35;2.72;;;;;;;19.06;83.17;100191.59;5062631;28;20131;-81
2023/08/05 08:32:37;;;;;;;3.38;2.10;;;;;;;18.96;82.54;100191.97;5043482;28;20328;-79
2023/08/05 08:35:05;;;;;;;2.90;1.77;;;;;;;19.20;82.46;100240.91;5021863;28;20554;-82
2023/08/05 08:37:32;;;;;;;1.98;1.77;;;;;;;19.49;83.33;100292.75;5040867;28;20044;-79
2023/08/05 08:40:02;;;;;;;2.65;1.70;;;;;;;19.60;83.05;100305.63;5036369;28;20165;-81
2023/08/05 08:42:33;;;;;;;2.65;1.83;;;;;;;19.57;83.72;100306.03;5041687;28;20130;-80
2023/08/05 08:45:05;;;;;;;5.38;1.60;;;;;;;19.71;84.22;100302.41;5033626;28;20063;-80
2023/08/05 08:47:38;;;;;;;4.15;1.52;;;;;;;19.89;83.19;100300.97;5036543;28;20255;-80
2023/08/05 08:50:06;;;;;;;1.48;1.17;;;;;;;20.00;81.50;100303.03;5025290;28;20041;-80
2023/08/05 08:52:38;;;;;;;1.33;1.10;;;;;;;19.39;81.49;100207.84;5000776;28;20052;-79
2023/08/05 08:55:05;;;;;;;;;;;;;;;20.36;79.80;100301.81;5018632;28;20121;-81
2023/08/05 08:57:39;;;;;;;1.63;0.90;;;;;;;19.60;79.28;100144.09;5033872;28;20011;-82
2023/08/05 09:00:13;;;;;;;1.42;1.10;;;;;;;20.78;78.60;100297.88;5041960;28;20311;-81
2023/08/05 09:02:43;;;;;;;4.45;1.30;;;;;;;20.66;79.14;100286.91;5025617;28;20516;-81
2023/08/05 09:05:14;;;;;;;2.53;1.35;;;;;;;20.63;78.62;100287.31;5029997;28;20140;-83
2023/08/05 09:07:41;;;;;;;1.63;1.08;;;;;;;20.56;78.94;100304.53;5034259;28;20278;-82
2023/08/05 09:10:14;;;;;;;2.55;0.93;;;;;;;20.21;78.63;100281.28;5037062;28;20513;-81
2023/08/05 09:12:45;;;;;;;1.63;1.15;;;;;;;19.20;79.79;100152.13;5033935;28;20405;-79
2023/08/05 09:15:15;;;;;;;4.25;1.63;;;;;;;20.09;79.52;100315.28;5030496;28;20181;-81
2023/08/05 09:17:43;;;;;;;2.42;1.30;;;;;;;19.50;80.49;100251.34;5027130;28;20049;-80
2023/08/05 09:20:24;;;;;;;2.03;1.20;;;;;;;19.72;81.82;100312.13;5024686;28;20254;-81
2023/08/05 09:22:56;;;;;;;1.67;1.15;;;;;;;19.58;82.83;100297.75;5015502;28;20459;-80
2023/08/05 09:25:27;;;;;;;3.92;1.83;;;;;;;19.52;83.56;100317.41;5055495;28;20393;-80
2023/08/05 09:27:58;;;;;;;2.38;1.10;;;;;;;19.28;84.75;100281.09;5030101;28;20539;-81
2023/08/05 09:30:30;;;;;;;2.65;1.10;;;;;;;19.76;84.42;100317.94;5025601;28;20105;-82
2023/08/05 09:33:00;;;;;;;2.88;1.00;;;;;;;19.84;83.68;100306.97;5019046;28;20056;-80
2023/08/05 09:35:35;;;;;;;1.25;0.90;;;;;;;20.06;82.56;100326.47;5027923;28;20058;-80
2023/08/05 09:38:12;;;;;;;3.22;1.27;;;;;;;19.89;81.47;100298.28;5043029;28;20047;-82
2023/08/05 09:40:52;;;;;;;3.35;1.83;;;;;;;20.30;81.28;100329.63;5027786;28;20377;-80
2023/08/05 09:43:35;;;;;;;2.72;1.02;;;;;;;20.36;80.68;100323.38;5032889;28;20098;-81
2023/08/05 09:46:04;;;;;;;1.05;0.75;;;;;;;20.51;80.35;100334.81;5044228;28;20981;-81
2023/08/05 09:48:48;;;;;;;1.88;0.85;;;;;;;20.33;80.30;100316.53;5048010;28;20052;-81
2023/08/05 09:51:27;;;;;;;2.05;1.20;;;;;;;19.97;79.25;100268.44;5008434;28;20109;-81
2023/08/05 09:54:12;;;;;;;1.58;1.30;;;;;;;20.28;78.58;100336.03;5002284;28;20105;-81
2023/08/05 09:56:46;;;;;;;2.00;1.40;;;;;;;20.01;79.03;100332.47;5009531;28;20080;-82
2023/08/05 09:59:30;;;;;;;1.52;1.23;;;;;;;19.92;81.28;100331.00;5004968;28;20052;-80
2023/08/05 10:02:18;;;;;;;2.00;1.42;;;;;;;19.96;81.57;100326.06;5009732;28;20540;-81
2023/08/05 10:04:54;;;;;;;3.38;1.65;;;;;;;19.63;81.90;100272.91;5033223;28;20135;-81
2023/08/05 10:07:24;;;;;;;5.22;1.48;;;;;;;19.59;81.78;100272.50;5025030;28;20172;-80
2023/08/05 10:09:57;;;;;;;3.50;1.23;;;;;;;19.73;82.13;100311.06;5050762;28;20291;-81
2023/08/05 10:13:08;;;;;;;2.63;1.30;;;;;;;19.93;81.86;100302.19;5038323;28;20084;-80
2023/08/05 10:15:40;;;;;;;3.90;1.67;;;;;;;19.97;81.12;100303.47;5056914;28;20047;-82
2023/08/05 10:18:10;;;;;;;2.38;1.58;;;;;;;20.23;81.25;100314.25;5069707;28;20052;-81
2023/08/05 10:20:38;;;;;;;2.33;1.50;;;;;;;20.32;81.14;100323.00;5067665;28;20057;-79
2023/08/05 10:23:07;;;;;;;2.72;1.65;;;;;;;19.94;80.67;100269.69;5063329;28;20139;-80
2023/08/05 10:25:43;;;;;;;3.13;1.15;;;;;;;20.16;79.79;100326.91;5058453;28;20112;-82
2023/08/05 10:28:38;;;;;;;2.53;1.42;;;;;;;19.77;81.35;100289.97;5057464;28;20313;-80
2023/08/05 10:31:21;;;;;;;2.40;1.27;;;;;;;19.81;81.77;100315.47;5074376;28;20643;-79
2023/08/05 10:34:11;;;;;;;1.60;1.10;;;;;;;19.77;82.78;100327.66;5066060;28;20150;-79
2023/08/05 10:36:46;;;;;;;3.05;1.45;;;;;;;19.51;82.35;100286.13;5067492;28;20048;-81
2023/08/05 10:39:40;;;;;;;3.05;1.55;;;;;;;19.71;82.19;100331.16;5062555;28;20052;-80
2023/08/05 10:42:21;;;;;;;2.42;1.42;;;;;;;19.63;83.88;100337.53;5051774;28;20047;-80
2023/08/05 10:44:58;;;;;;;2.60;1.50;;;;;;;19.61;83.87;100331.50;5056445;28;20055;-81
2023/08/05 10:47:25;;;;;;;2.33;1.85;;;;;;;19.48;84.02;100309.94;5057625;28;20525;-82
2023/08/05 10:50:00;;;;;;;3.53;2.28;;;;;;;19.65;83.18;100327.41;5038906;28;20058;-79
2023/08/05 10:52:35;;;;;;;2.90;2.17;;;;;;;19.63;84.07;100337.53;5054805;28;20064;-78
2023/08/05 10:55:12;;;;;;;4.82;2.88;;;;;;;19.65;85.00;100340.84;5027384;28;20311;-81
2023/08/05 10:57:54;;;;;;;5.90;3.03;;;;;;;19.56;85.06;100325.91;5028708;28;20082;-78
2023/08/05 11:00:26;;;;;;;7.22;3.17;;;;;;;19.61;85.34;100335.06;5045868;28;20272;-81
2023/08/05 11:03:35;;;;;;;3.30;2.75;;;;;;;19.85;84.40;100346.31;5065932;28;20135;-78
2023/08/05 11:06:04;;;;;;;3.33;2.33;;;;;;;19.87;83.95;100336.19;5049906;28;20549;-79
2023/08/05 11:08:32;;;;;;;3.63;2.60;;;;;;;19.93;84.50;100337.22;5084153;28;20163;-78
2023/08/05 11:11:14;;;;;;;3.10;2.47;;;;;;;19.90;83.85;100326.84;5040765;28;20322;-79
2023/08/05 11:13:44;;;;;;;7.47;2.40;;;;;;;19.80;83.95;100317.31;5038389;28;20192;-79
2023/08/05 11:16:18;;;;;;;4.20;2.13;;;;;;;19.92;83.71;100338.25;5071493;28;20059;-79
2023/08/05 11:18:54;;;;;;;2.80;1.80;;;;;;;20.01;83.13;100351.34;5040625;28;20044;-79
2023/08/05 11:21:21;;;;;;;2.58;1.90;;;;;;;20.06;83.89;100331.88;5046794;28;20048;-79
2023/08/05 11:23:48;;;;;;;4.10;1.90;;;;;;;20.22;82.54;100342.25;5017364;28;20143;-79
2023/08/05 11:26:23;;;;;;;8.10;2.67;;;;;;;20.37;82.06;100341.25;5038140;28;20132;-78
2023/08/05 11:28:50;;;;;;;2.35;1.90;;;;;;;20.28;81.65;100321.72;5040975;28;20052;-78
2023/08/05 11:31:26;;;;;;;5.30;1.85;;;;;;;20.31;82.31;100350.13;5047151;28;20448;-80
2023/08/05 11:33:54;;;;;;;3.53;2.13;;;;;;;20.35;82.99;100351.41;5043513;28;20109;-79
2023/08/05 11:36:25;;;;;;;1.95;1.77;;;;;;;20.18;80.43;100316.75;5050742;28;20493;-78
2023/08/05 11:38:56;;;;;;;2.72;1.85;;;;;;;20.16;80.67;100321.50;5033165;28;20485;-79